sensor_id;sensor_type;location;lat;lon;timestamp;temperature;humidity
47765;DHT22;33529;49.242;8.670;2023-10-13T00:00:28;16.90;99.90
47765;DHT22;33529;49.242;8.670;2023-10-13T00:03:04;16.90;99.90
47765;DHT22;33529;49.242;8.670;2023-10-13T00:05:33;17.00;99.90
47765;DHT22;33529;49.242;8.670;2023-10-13T00:08:01;17.00;99.90
47765;DHT22;33529;49.242;8.670;2023-10-13T00:10:29;17.00;99.90
47765;DHT22;33529;49.242;8.670;2023-10-13T00:12:57;17.00;99.90
47765;DHT22;33529;49.242;8.670;2023-10-13T00:18:12;17.00;99.90
47765;DHT22;33529;49.242;8.670;2023-10-13T00:20:40;17.00;99.90
47765;DHT22;33529;49.242;8.670;2023-10-13T00:23:13;17.00;99.90
47765;DHT22;33529;49.242;8.670;2023-10-13T00:25:40;17.10;99.90
47765;DHT22;33529;49.242;8.670;2023-10-13T00:28:16;17.00;99.90
47765;DHT22;33529;49.242;8.670;2023-10-13T00:30:54;17.10;99.90
47765;DHT22;33529;49.242;8.670;2023-10-13T00:33:28;17.10;99.90
47765;DHT22;33529;49.242;8.670;2023-10-13T00:35:58;17.10;99.90
47765;DHT22;33529;49.242;8.670;2023-10-13T00:38:25;17.10;99.90
47765;DHT22;33529;49.242;8.670;2023-10-13T00:40:54;17.10;99.90
47765;DHT22;33529;49.242;8.670;2023-10-13T00:43:24;17.10;99.90
47765;DHT22;33529;49.242;8.670;2023-10-13T00:45:56;17.10;99.90
47765;DHT22;33529;49.242;8.670;2023-10-13T00:48:40;17.00;99.90
47765;DHT22;33529;49.242;8.670;2023-10-13T00:51:11;17.00;99.90
47765;DHT22;33529;49.242;8.670;2023-10-13T00:53:57;17.10;99.90
47765;DHT22;33529;49.242;8.670;2023-10-13T00:56:25;17.00;99.90
47765;DHT22;33529;49.242;8.670;2023-10-13T00:58:57;17.00;99.90
47765;DHT22;33529;49.242;8.670;2023-10-13T01:01:29;17.00;99.90
47765;DHT22;33529;49.242;8.670;2023-10-13T01:04:00;17.00;99.90
47765;DHT22;33529;49.242;8.670;2023-10-13T01:06:29;17.00;99.90
47765;DHT22;33529;49.242;8.670;2023-10-13T01:09:15;16.90;99.90
47765;DHT22;33529;49.242;8.670;2023-10-13T01:11:47;16.90;99.90
47765;DHT22;33529;49.242;8.670;2023-10-13T01:14:15;16.90;99.90
47765;DHT22;33529;49.242;8.670;2023-10-13T01:16:45;16.90;99.90
47765;DHT22;33529;49.242;8.670;2023-10-13T01:19:16;16.80;99.90
47765;DHT22;33529;49.242;8.670;2023-10-13T01:21:51;16.80;99.90
47765;DHT22;33529;49.242;8.670;2023-10-13T01:24:29;16.90;99.90
47765;DHT22;33529;49.242;8.670;2023-10-13T01:27:05;16.80;99.90
47765;DHT22;33529;49.242;8.670;2023-10-13T01:29:47;16.80;99.90
47765;DHT22;33529;49.242;8.670;2023-10-13T01:32:32;16.90;99.90
47765;DHT22;33529;49.242;8.670;2023-10-13T01:34:59;16.90;99.90
47765;DHT22;33529;49.242;8.670;2023-10-13T01:37:32;16.90;99.90
47765;DHT22;33529;49.242;8.670;2023-10-13T01:39:59;16.90;99.90
47765;DHT22;33529;49.242;8.670;2023-10-13T01:42:26;16.90;99.90
47765;DHT22;33529;49.242;8.670;2023-10-13T01:44:56;16.90;99.90
47765;DHT22;33529;49.242;8.670;2023-10-13T01:47:32;16.90;99.90
47765;DHT22;33529;49.242;8.670;2023-10-13T01:50:03;16.70;99.90
47765;DHT22;33529;49.242;8.670;2023-10-13T01:52:41;16.70;99.90
47765;DHT22;33529;49.242;8.670;2023-10-13T01:55:11;16.60;99.90
47765;DHT22;33529;49.242;8.670;2023-10-13T01:57:38;16.60;99.90
47765;DHT22;33529;49.242;8.670;2023-10-13T02:00:08;16.50;99.90
47765;DHT22;33529;49.242;8.670;2023-10-13T02:02:46;16.40;99.90
47765;DHT22;33529;49.242;8.670;2023-10-13T02:05:17;16.30;99.90
47765;DHT22;33529;49.242;8.670;2023-10-13T02:07:44;16.30;99.90
47765;DHT22;33529;49.242;8.670;2023-10-13T02:10:12;16.20;99.90
47765;DHT22;33529;49.242;8.670;2023-10-13T02:12:40;16.20;99.90
47765;DHT22;33529;49.242;8.670;2023-10-13T02:15:11;16.10;99.90
47765;DHT22;33529;49.242;8.670;2023-10-13T02:17:47;16.10;99.90
47765;DHT22;33529;49.242;8.670;2023-10-13T02:20:19;16.00;99.90
47765;DHT22;33529;49.242;8.670;2023-10-13T02:22:49;16.00;99.90
47765;DHT22;33529;49.242;8.670;2023-10-13T02:25:17;15.90;99.90
47765;DHT22;33529;49.242;8.670;2023-10-13T02:28:04;15.90;99.90
47765;DHT22;33529;49.242;8.670;2023-10-13T02:30:44;15.90;99.90
47765;DHT22;33529;49.242;8.670;2023-10-13T02:33:17;15.80;99.90
47765;DHT22;33529;49.242;8.670;2023-10-13T02:35:57;15.80;99.90
47765;DHT22;33529;49.242;8.670;2023-10-13T02:38:25;15.70;99.90
47765;DHT22;33529;49.242;8.670;2023-10-13T02:41:01;15.60;99.90
47765;DHT22;33529;49.242;8.670;2023-10-13T02:43:37;15.60;99.90
47765;DHT22;33529;49.242;8.670;2023-10-13T02:46:04;15.60;99.90
47765;DHT22;33529;49.242;8.670;2023-10-13T02:48:31;15.50;99.90
47765;DHT22;33529;49.242;8.670;2023-10-13T02:51:08;15.50;99.90
47765;DHT22;33529;49.242;8.670;2023-10-13T02:53:45;15.50;99.90
47765;DHT22;33529;49.242;8.670;2023-10-13T02:56:16;15.50;99.90
47765;DHT22;33529;49.242;8.670;2023-10-13T02:58:50;15.40;99.90
47765;DHT22;33529;49.242;8.670;2023-10-13T03:01:23;15.50;99.90
47765;DHT22;33529;49.242;8.670;2023-10-13T03:04:02;15.40;99.90
47765;DHT22;33529;49.242;8.670;2023-10-13T03:06:36;15.40;99.90
47765;DHT22;33529;49.242;8.670;2023-10-13T03:09:10;15.40;99.90
47765;DHT22;33529;49.242;8.670;2023-10-13T03:11:49;15.50;99.90
47765;DHT22;33529;49.242;8.670;2023-10-13T03:14:18;15.50;99.90
47765;DHT22;33529;49.242;8.670;2023-10-13T03:16:59;15.40;99.90
47765;DHT22;33529;49.242;8.670;2023-10-13T03:19:31;15.40;99.90
47765;DHT22;33529;49.242;8.670;2023-10-13T03:22:05;15.30;99.90
47765;DHT22;33529;49.242;8.670;2023-10-13T03:24:44;15.30;99.90
47765;DHT22;33529;49.242;8.670;2023-10-13T03:27:17;15.30;99.90
47765;DHT22;33529;49.242;8.670;2023-10-13T03:29:49;15.20;99.90
47765;DHT22;33529;49.242;8.670;2023-10-13T03:32:23;15.10;99.90
47765;DHT22;33529;49.242;8.670;2023-10-13T03:34:53;15.10;99.90
47765;DHT22;33529;49.242;8.670;2023-10-13T03:37:26;15.00;99.90
47765;DHT22;33529;49.242;8.670;2023-10-13T03:40:10;15.00;99.90
47765;DHT22;33529;49.242;8.670;2023-10-13T03:42:48;15.00;99.90
47765;DHT22;33529;49.242;8.670;2023-10-13T03:45:44;15.00;99.90
47765;DHT22;33529;49.242;8.670;2023-10-13T03:48:15;14.90;99.90
47765;DHT22;33529;49.242;8.670;2023-10-13T03:50:58;14.90;99.90
47765;DHT22;33529;49.242;8.670;2023-10-13T03:53:38;14.90;99.90
47765;DHT22;33529;49.242;8.670;2023-10-13T03:56:28;14.70;99.90
47765;DHT22;33529;49.242;8.670;2023-10-13T03:59:06;14.70;99.90
47765;DHT22;33529;49.242;8.670;2023-10-13T04:01:36;14.60;99.90
47765;DHT22;33529;49.242;8.670;2023-10-13T04:04:17;14.60;99.90
47765;DHT22;33529;49.242;8.670;2023-10-13T04:07:02;14.60;99.90
47765;DHT22;33529;49.242;8.670;2023-10-13T04:09:32;14.50;99.90
47765;DHT22;33529;49.242;8.670;2023-10-13T04:11:59;14.50;99.90
47765;DHT22;33529;49.242;8.670;2023-10-13T04:17:15;14.50;99.90
47765;DHT22;33529;49.242;8.670;2023-10-13T04:19:50;14.60;99.90
47765;DHT22;33529;49.242;8.670;2023-10-13T04:22:33;14.60;99.90
47765;DHT22;33529;49.242;8.670;2023-10-13T04:28:02;14.60;99.90
47765;DHT22;33529;49.242;8.670;2023-10-13T04:30:45;14.70;99.90
47765;DHT22;33529;49.242;8.670;2023-10-13T04:33:27;14.70;99.90
47765;DHT22;33529;49.242;8.670;2023-10-13T04:36:14;14.70;99.90
47765;DHT22;33529;49.242;8.670;2023-10-13T04:38:58;14.80;99.90
47765;DHT22;33529;49.242;8.670;2023-10-13T04:41:39;14.80;99.90
47765;DHT22;33529;49.242;8.670;2023-10-13T04:44:16;14.90;99.90
47765;DHT22;33529;49.242;8.670;2023-10-13T04:47:02;14.90;99.90
47765;DHT22;33529;49.242;8.670;2023-10-13T04:49:31;14.90;99.90
47765;DHT22;33529;49.242;8.670;2023-10-13T04:52:05;14.80;99.90
47765;DHT22;33529;49.242;8.670;2023-10-13T04:54:43;14.90;99.90
47765;DHT22;33529;49.242;8.670;2023-10-13T04:57:18;14.90;99.90
47765;DHT22;33529;49.242;8.670;2023-10-13T05:00:07;14.80;99.90
47765;DHT22;33529;49.242;8.670;2023-10-13T05:02:39;14.80;99.90
47765;DHT22;33529;49.242;8.670;2023-10-13T05:05:09;14.80;99.90
47765;DHT22;33529;49.242;8.670;2023-10-13T05:07:46;14.70;99.90
47765;DHT22;33529;49.242;8.670;2023-10-13T05:10:35;14.80;99.90
47765;DHT22;33529;49.242;8.670;2023-10-13T05:13:20;14.70;99.90
47765;DHT22;33529;49.242;8.670;2023-10-13T05:16:06;14.60;99.90
47765;DHT22;33529;49.242;8.670;2023-10-13T05:18:51;14.60;99.90
47765;DHT22;33529;49.242;8.670;2023-10-13T05:21:37;14.60;99.90
47765;DHT22;33529;49.242;8.670;2023-10-13T05:24:23;14.60;99.90
47765;DHT22;33529;49.242;8.670;2023-10-13T05:27:09;14.40;99.90
47765;DHT22;33529;49.242;8.670;2023-10-13T05:29:54;14.40;99.90
47765;DHT22;33529;49.242;8.670;2023-10-13T05:32:40;14.20;99.90
47765;DHT22;33529;49.242;8.670;2023-10-13T05:35:26;14.10;99.90
47765;DHT22;33529;49.242;8.670;2023-10-13T05:38:11;14.00;99.90
47765;DHT22;33529;49.242;8.670;2023-10-13T05:41:01;14.00;99.90
47765;DHT22;33529;49.242;8.670;2023-10-13T05:43:51;14.00;99.90
47765;DHT22;33529;49.242;8.670;2023-10-13T05:46:36;14.00;99.90
47765;DHT22;33529;49.242;8.670;2023-10-13T05:49:08;14.00;99.90
47765;DHT22;33529;49.242;8.670;2023-10-13T05:51:38;13.90;99.90
47765;DHT22;33529;49.242;8.670;2023-10-13T05:54:08;14.00;99.90
47765;DHT22;33529;49.242;8.670;2023-10-13T05:56:49;13.90;99.90
47765;DHT22;33529;49.242;8.670;2023-10-13T05:59:45;13.90;99.90
47765;DHT22;33529;49.242;8.670;2023-10-13T06:02:31;13.90;99.90
47765;DHT22;33529;49.242;8.670;2023-10-13T06:05:17;13.90;99.90
47765;DHT22;33529;49.242;8.670;2023-10-13T06:08:03;13.90;99.90
47765;DHT22;33529;49.242;8.670;2023-10-13T06:10:49;14.00;99.90
47765;DHT22;33529;49.242;8.670;2023-10-13T06:13:34;14.00;99.90
47765;DHT22;33529;49.242;8.670;2023-10-13T06:16:20;13.90;99.90
47765;DHT22;33529;49.242;8.670;2023-10-13T06:19:05;13.80;99.90
47765;DHT22;33529;49.242;8.670;2023-10-13T06:21:51;13.80;99.90
47765;DHT22;33529;49.242;8.670;2023-10-13T06:24:36;13.80;99.90
47765;DHT22;33529;49.242;8.670;2023-10-13T06:27:21;13.80;99.90
47765;DHT22;33529;49.242;8.670;2023-10-13T06:30:08;13.80;99.90
47765;DHT22;33529;49.242;8.670;2023-10-13T06:32:35;14.00;99.90
47765;DHT22;33529;49.242;8.670;2023-10-13T06:35:07;14.10;99.90
47765;DHT22;33529;49.242;8.670;2023-10-13T06:37:34;14.10;99.90
47765;DHT22;33529;49.242;8.670;2023-10-13T06:40:12;14.10;99.90
47765;DHT22;33529;49.242;8.670;2023-10-13T06:42:53;14.10;99.90
47765;DHT22;33529;49.242;8.670;2023-10-13T06:45:22;14.20;99.90
47765;DHT22;33529;49.242;8.670;2023-10-13T06:47:48;14.40;99.90
47765;DHT22;33529;49.242;8.670;2023-10-13T06:50:20;14.50;99.90
47765;DHT22;33529;49.242;8.670;2023-10-13T06:52:51;14.60;99.90
47765;DHT22;33529;49.242;8.670;2023-10-13T06:55:21;14.60;99.90
47765;DHT22;33529;49.242;8.670;2023-10-13T06:57:56;14.80;99.90
47765;DHT22;33529;49.242;8.670;2023-10-13T07:00:28;14.90;99.90
47765;DHT22;33529;49.242;8.670;2023-10-13T07:03:02;15.00;99.90
47765;DHT22;33529;49.242;8.670;2023-10-13T07:05:35;15.10;99.90
47765;DHT22;33529;49.242;8.670;2023-10-13T07:08:02;15.20;99.90
47765;DHT22;33529;49.242;8.670;2023-10-13T07:10:31;15.30;99.90
47765;DHT22;33529;49.242;8.670;2023-10-13T07:13:01;15.40;99.90
47765;DHT22;33529;49.242;8.670;2023-10-13T07:15:31;15.50;99.90
47765;DHT22;33529;49.242;8.670;2023-10-13T07:17:58;15.60;99.90
47765;DHT22;33529;49.242;8.670;2023-10-13T07:20:26;15.70;99.90
47765;DHT22;33529;49.242;8.670;2023-10-13T07:22:56;15.80;99.90
47765;DHT22;33529;49.242;8.670;2023-10-13T07:25:34;15.90;99.90
47765;DHT22;33529;49.242;8.670;2023-10-13T07:28:04;16.00;99.90
47765;DHT22;33529;49.242;8.670;2023-10-13T07:30:35;16.10;99.90
47765;DHT22;33529;49.242;8.670;2023-10-13T07:33:21;16.30;99.90
47765;DHT22;33529;49.242;8.670;2023-10-13T07:35:59;16.40;99.90
47765;DHT22;33529;49.242;8.670;2023-10-13T07:38:27;16.60;99.90
47765;DHT22;33529;49.242;8.670;2023-10-13T07:40:59;16.60;99.90
47765;DHT22;33529;49.242;8.670;2023-10-13T07:43:33;16.80;99.90
47765;DHT22;33529;49.242;8.670;2023-10-13T07:46:00;16.80;99.90
47765;DHT22;33529;49.242;8.670;2023-10-13T07:48:33;16.90;99.90
47765;DHT22;33529;49.242;8.670;2023-10-13T07:51:02;17.00;99.90
47765;DHT22;33529;49.242;8.670;2023-10-13T07:53:33;17.20;99.90
47765;DHT22;33529;49.242;8.670;2023-10-13T07:56:08;17.20;99.90
47765;DHT22;33529;49.242;8.670;2023-10-13T07:58:35;17.30;99.90
47765;DHT22;33529;49.242;8.670;2023-10-13T08:01:20;17.50;99.90
47765;DHT22;33529;49.242;8.670;2023-10-13T08:03:48;17.60;99.90
47765;DHT22;33529;49.242;8.670;2023-10-13T08:06:24;17.60;99.90
47765;DHT22;33529;49.242;8.670;2023-10-13T08:08:55;17.70;99.90
47765;DHT22;33529;49.242;8.670;2023-10-13T08:11:34;17.90;99.90
47765;DHT22;33529;49.242;8.670;2023-10-13T08:14:02;17.90;99.90
47765;DHT22;33529;49.242;8.670;2023-10-13T08:17:00;18.00;99.90
47765;DHT22;33529;49.242;8.670;2023-10-13T08:19:28;18.20;99.90
47765;DHT22;33529;49.242;8.670;2023-10-13T08:21:59;18.30;99.90
47765;DHT22;33529;49.242;8.670;2023-10-13T08:24:47;18.40;99.90
47765;DHT22;33529;49.242;8.670;2023-10-13T08:27:16;18.50;99.90
47765;DHT22;33529;49.242;8.670;2023-10-13T08:30:02;18.70;99.90
47765;DHT22;33529;49.242;8.670;2023-10-13T08:32:48;18.90;99.90
47765;DHT22;33529;49.242;8.670;2023-10-13T08:35:21;18.90;99.90
47765;DHT22;33529;49.242;8.670;2023-10-13T08:37:57;19.00;99.90
47765;DHT22;33529;49.242;8.670;2023-10-13T08:40:50;19.10;99.90
47765;DHT22;33529;49.242;8.670;2023-10-13T08:43:37;19.20;99.90
47765;DHT22;33529;49.242;8.670;2023-10-13T08:46:10;19.30;99.90
47765;DHT22;33529;49.242;8.670;2023-10-13T08:48:58;19.40;99.90
47765;DHT22;33529;49.242;8.670;2023-10-13T08:51:43;19.50;99.90
47765;DHT22;33529;49.242;8.670;2023-10-13T08:54:14;19.60;99.90
47765;DHT22;33529;49.242;8.670;2023-10-13T08:57:02;19.70;99.90
47765;DHT22;33529;49.242;8.670;2023-10-13T08:59:52;19.80;99.90
47765;DHT22;33529;49.242;8.670;2023-10-13T09:02:21;19.80;99.90
47765;DHT22;33529;49.242;8.670;2023-10-13T09:05:11;19.90;99.90
47765;DHT22;33529;49.242;8.670;2023-10-13T09:07:57;20.00;99.90
47765;DHT22;33529;49.242;8.670;2023-10-13T09:10:35;20.10;99.90
47765;DHT22;33529;49.242;8.670;2023-10-13T09:13:11;20.20;99.90
47765;DHT22;33529;49.242;8.670;2023-10-13T09:15:45;20.20;99.90
47765;DHT22;33529;49.242;8.670;2023-10-13T09:18:28;20.30;99.90
47765;DHT22;33529;49.242;8.670;2023-10-13T09:21:16;20.40;99.90
47765;DHT22;33529;49.242;8.670;2023-10-13T09:24:01;20.50;99.90
47765;DHT22;33529;49.242;8.670;2023-10-13T09:26:50;20.60;99.90
47765;DHT22;33529;49.242;8.670;2023-10-13T09:29:20;20.70;99.90
47765;DHT22;33529;49.242;8.670;2023-10-13T09:32:03;20.80;99.90
47765;DHT22;33529;49.242;8.670;2023-10-13T09:34:31;20.80;99.90
47765;DHT22;33529;49.242;8.670;2023-10-13T09:37:01;20.90;99.90
47765;DHT22;33529;49.242;8.670;2023-10-13T09:39:32;21.00;99.90
47765;DHT22;33529;49.242;8.670;2023-10-13T09:42:12;21.10;99.90
47765;DHT22;33529;49.242;8.670;2023-10-13T09:44:44;21.10;99.90
47765;DHT22;33529;49.242;8.670;2023-10-13T09:47:22;21.20;99.90
47765;DHT22;33529;49.242;8.670;2023-10-13T09:49:59;21.30;99.90
47765;DHT22;33529;49.242;8.670;2023-10-13T09:52:32;21.40;99.90
47765;DHT22;33529;49.242;8.670;2023-10-13T09:55:19;21.40;99.90
47765;DHT22;33529;49.242;8.670;2023-10-13T09:57:53;21.50;99.50
47765;DHT22;33529;49.242;8.670;2023-10-13T10:00:28;21.70;99.00
47765;DHT22;33529;49.242;8.670;2023-10-13T10:03:08;21.90;98.20
47765;DHT22;33529;49.242;8.670;2023-10-13T10:05:42;21.90;97.60
47765;DHT22;33529;49.242;8.670;2023-10-13T10:08:25;22.00;97.60
47765;DHT22;33529;49.242;8.670;2023-10-13T10:17:05;22.30;97.30
47765;DHT22;33529;49.242;8.670;2023-10-13T10:19:52;22.30;95.90
47765;DHT22;33529;49.242;8.670;2023-10-13T10:22:34;22.40;97.90
47765;DHT22;33529;49.242;8.670;2023-10-13T10:25:04;22.40;96.10
47765;DHT22;33529;49.242;8.670;2023-10-13T10:27:33;22.50;96.20
47765;DHT22;33529;49.242;8.670;2023-10-13T10:30:01;22.60;95.70
47765;DHT22;33529;49.242;8.670;2023-10-13T10:32:38;22.70;95.30
47765;DHT22;33529;49.242;8.670;2023-10-13T10:35:09;22.80;95.00
47765;DHT22;33529;49.242;8.670;2023-10-13T10:37:47;22.90;95.70
47765;DHT22;33529;49.242;8.670;2023-10-13T10:40:16;22.90;96.00
47765;DHT22;33529;49.242;8.670;2023-10-13T10:43:02;23.10;94.90
47765;DHT22;33529;49.242;8.670;2023-10-13T10:45:55;23.30;94.00
47765;DHT22;33529;49.242;8.670;2023-10-13T10:48:26;23.70;93.20
47765;DHT22;33529;49.242;8.670;2023-10-13T10:50:58;23.90;92.40
47765;DHT22;33529;49.242;8.670;2023-10-13T10:53:34;24.20;92.80
47765;DHT22;33529;49.242;8.670;2023-10-13T10:56:11;24.50;90.70
47765;DHT22;33529;49.242;8.670;2023-10-13T10:58:48;24.60;91.00
47765;DHT22;33529;49.242;8.670;2023-10-13T11:01:15;24.70;91.30
47765;DHT22;33529;49.242;8.670;2023-10-13T11:04:00;24.60;90.20
47765;DHT22;33529;49.242;8.670;2023-10-13T11:06:48;24.60;90.90
47765;DHT22;33529;49.242;8.670;2023-10-13T11:09:30;24.70;90.00
47765;DHT22;33529;49.242;8.670;2023-10-13T11:12:14;24.80;90.60
47765;DHT22;33529;49.242;8.670;2023-10-13T11:15:05;25.00;89.20
47765;DHT22;33529;49.242;8.670;2023-10-13T11:17:49;25.10;88.50
47765;DHT22;33529;49.242;8.670;2023-10-13T11:20:23;25.40;88.10
47765;DHT22;33529;49.242;8.670;2023-10-13T11:23:01;25.60;88.10
47765;DHT22;33529;49.242;8.670;2023-10-13T11:25:32;25.90;87.00
47765;DHT22;33529;49.242;8.670;2023-10-13T11:28:18;26.00;85.70
47765;DHT22;33529;49.242;8.670;2023-10-13T11:30:55;26.30;83.60
47765;DHT22;33529;49.242;8.670;2023-10-13T11:33:27;26.50;85.90
47765;DHT22;33529;49.242;8.670;2023-10-13T11:35:56;26.60;84.90
47765;DHT22;33529;49.242;8.670;2023-10-13T11:38:33;26.70;83.90
47765;DHT22;33529;49.242;8.670;2023-10-13T11:41:10;26.70;83.90
47765;DHT22;33529;49.242;8.670;2023-10-13T11:43:45;26.70;84.20
47765;DHT22;33529;49.242;8.670;2023-10-13T11:49:03;26.80;84.20
47765;DHT22;33529;49.242;8.670;2023-10-13T11:51:49;26.70;83.30
47765;DHT22;33529;49.242;8.670;2023-10-13T11:54:17;26.70;83.60
47765;DHT22;33529;49.242;8.670;2023-10-13T11:56:46;26.60;84.40
47765;DHT22;33529;49.242;8.670;2023-10-13T11:59:13;26.50;82.00
47765;DHT22;33529;49.242;8.670;2023-10-13T12:01:47;26.40;82.20
47765;DHT22;33529;49.242;8.670;2023-10-13T12:04:34;26.30;82.50
47765;DHT22;33529;49.242;8.670;2023-10-13T12:07:08;26.20;81.90
47765;DHT22;33529;49.242;8.670;2023-10-13T12:09:44;26.10;81.80
47765;DHT22;33529;49.242;8.670;2023-10-13T12:12:27;26.10;82.50
47765;DHT22;33529;49.242;8.670;2023-10-13T12:14:54;26.10;82.50
47765;DHT22;33529;49.242;8.670;2023-10-13T12:17:28;26.20;82.00
47765;DHT22;33529;49.242;8.670;2023-10-13T12:19:58;26.20;81.20
47765;DHT22;33529;49.242;8.670;2023-10-13T12:22:26;26.20;81.20
47765;DHT22;33529;49.242;8.670;2023-10-13T12:25:02;26.20;81.80
47765;DHT22;33529;49.242;8.670;2023-10-13T12:27:45;26.20;81.00
47765;DHT22;33529;49.242;8.670;2023-10-13T12:30:15;26.30;82.40
47765;DHT22;33529;49.242;8.670;2023-10-13T12:32:50;26.30;83.10
47765;DHT22;33529;49.242;8.670;2023-10-13T12:35:36;26.30;81.60
47765;DHT22;33529;49.242;8.670;2023-10-13T12:38:11;26.20;81.30
47765;DHT22;33529;49.242;8.670;2023-10-13T12:40:57;26.30;82.50
47765;DHT22;33529;49.242;8.670;2023-10-13T12:44:00;26.30;82.90
47765;DHT22;33529;49.242;8.670;2023-10-13T12:46:54;26.40;81.50
47765;DHT22;33529;49.242;8.670;2023-10-13T12:49:40;26.50;81.80
47765;DHT22;33529;49.242;8.670;2023-10-13T12:52:11;26.60;81.50
47765;DHT22;33529;49.242;8.670;2023-10-13T12:54:53;26.70;81.20
47765;DHT22;33529;49.242;8.670;2023-10-13T12:57:26;26.90;81.50
47765;DHT22;33529;49.242;8.670;2023-10-13T12:59:54;26.80;83.60
47765;DHT22;33529;49.242;8.670;2023-10-13T13:02:22;26.90;81.80
47765;DHT22;33529;49.242;8.670;2023-10-13T13:04:53;27.00;80.40
47765;DHT22;33529;49.242;8.670;2023-10-13T13:07:24;27.00;80.70
47765;DHT22;33529;49.242;8.670;2023-10-13T13:09:56;27.00;81.20
47765;DHT22;33529;49.242;8.670;2023-10-13T13:12:26;27.00;82.50
47765;DHT22;33529;49.242;8.670;2023-10-13T13:14:56;27.00;80.50
47765;DHT22;33529;49.242;8.670;2023-10-13T13:17:23;27.00;81.70
47765;DHT22;33529;49.242;8.670;2023-10-13T13:19:50;27.00;79.60
47765;DHT22;33529;49.242;8.670;2023-10-13T13:22:17;26.90;80.00
47765;DHT22;33529;49.242;8.670;2023-10-13T13:24:45;26.90;78.70
47765;DHT22;33529;49.242;8.670;2023-10-13T13:27:15;26.80;79.90
47765;DHT22;33529;49.242;8.670;2023-10-13T13:29:46;26.70;80.30
47765;DHT22;33529;49.242;8.670;2023-10-13T13:32:13;26.70;80.60
47765;DHT22;33529;49.242;8.670;2023-10-13T13:34:51;26.70;79.20
47765;DHT22;33529;49.242;8.670;2023-10-13T13:37:25;26.60;80.50
47765;DHT22;33529;49.242;8.670;2023-10-13T13:39:54;26.60;79.00
47765;DHT22;33529;49.242;8.670;2023-10-13T13:42:21;26.60;81.20
47765;DHT22;33529;49.242;8.670;2023-10-13T13:44:48;26.60;78.80
47765;DHT22;33529;49.242;8.670;2023-10-13T13:47:15;26.60;79.20
47765;DHT22;33529;49.242;8.670;2023-10-13T13:49:43;26.60;79.40
47765;DHT22;33529;49.242;8.670;2023-10-13T13:52:18;26.70;78.30
47765;DHT22;33529;49.242;8.670;2023-10-13T13:54:49;26.60;79.90
47765;DHT22;33529;49.242;8.670;2023-10-13T13:57:16;26.60;78.90
47765;DHT22;33529;49.242;8.670;2023-10-13T13:59:44;26.50;78.20
47765;DHT22;33529;49.242;8.670;2023-10-13T14:02:12;26.40;79.90
47765;DHT22;33529;49.242;8.670;2023-10-13T14:04:48;26.40;79.20
47765;DHT22;33529;49.242;8.670;2023-10-13T14:07:19;26.40;78.60
47765;DHT22;33529;49.242;8.670;2023-10-13T14:09:51;26.40;79.20
47765;DHT22;33529;49.242;8.670;2023-10-13T14:12:21;26.40;79.60
47765;DHT22;33529;49.242;8.670;2023-10-13T14:15:09;26.40;79.10
47765;DHT22;33529;49.242;8.670;2023-10-13T14:17:50;26.30;77.50
47765;DHT22;33529;49.242;8.670;2023-10-13T14:20:17;26.40;77.60
47765;DHT22;33529;49.242;8.670;2023-10-13T14:22:47;26.50;77.20
47765;DHT22;33529;49.242;8.670;2023-10-13T14:25:15;26.50;76.50
47765;DHT22;33529;49.242;8.670;2023-10-13T14:27:43;26.40;77.50
47765;DHT22;33529;49.242;8.670;2023-10-13T14:30:10;26.40;77.00
47765;DHT22;33529;49.242;8.670;2023-10-13T14:32:46;26.30;78.70
47765;DHT22;33529;49.242;8.670;2023-10-13T14:35:13;26.30;79.00
47765;DHT22;33529;49.242;8.670;2023-10-13T14:37:42;26.30;79.10
47765;DHT22;33529;49.242;8.670;2023-10-13T14:40:09;26.30;77.30
47765;DHT22;33529;49.242;8.670;2023-10-13T14:42:42;26.30;78.10
47765;DHT22;33529;49.242;8.670;2023-10-13T14:45:09;26.30;77.20
47765;DHT22;33529;49.242;8.670;2023-10-13T14:47:40;26.30;78.00
47765;DHT22;33529;49.242;8.670;2023-10-13T14:50:08;26.30;76.90
47765;DHT22;33529;49.242;8.670;2023-10-13T14:52:41;26.30;78.20
47765;DHT22;33529;49.242;8.670;2023-10-13T14:55:10;26.20;76.90
47765;DHT22;33529;49.242;8.670;2023-10-13T14:57:49;26.10;76.70
47765;DHT22;33529;49.242;8.670;2023-10-13T15:00:18;26.00;76.50
47765;DHT22;33529;49.242;8.670;2023-10-13T15:02:54;26.10;76.70
47765;DHT22;33529;49.242;8.670;2023-10-13T15:05:22;26.10;77.00
47765;DHT22;33529;49.242;8.670;2023-10-13T15:07:49;26.10;76.20
47765;DHT22;33529;49.242;8.670;2023-10-13T15:10:18;26.00;77.90
47765;DHT22;33529;49.242;8.670;2023-10-13T15:12:45;26.00;76.60
47765;DHT22;33529;49.242;8.670;2023-10-13T15:15:12;26.10;77.60
47765;DHT22;33529;49.242;8.670;2023-10-13T15:17:46;26.10;77.20
47765;DHT22;33529;49.242;8.670;2023-10-13T15:20:14;26.10;77.50
47765;DHT22;33529;49.242;8.670;2023-10-13T15:22:45;26.10;76.80
47765;DHT22;33529;49.242;8.670;2023-10-13T15:25:15;26.10;77.50
47765;DHT22;33529;49.242;8.670;2023-10-13T15:27:58;26.10;77.90
47765;DHT22;33529;49.242;8.670;2023-10-13T15:30:29;26.10;78.00
47765;DHT22;33529;49.242;8.670;2023-10-13T15:33:19;26.00;79.20
47765;DHT22;33529;49.242;8.670;2023-10-13T15:35:47;26.00;78.60
47765;DHT22;33529;49.242;8.670;2023-10-13T15:38:14;25.80;79.00
47765;DHT22;33529;49.242;8.670;2023-10-13T15:40:44;25.80;79.00
47765;DHT22;33529;49.242;8.670;2023-10-13T15:43:12;25.60;78.70
47765;DHT22;33529;49.242;8.670;2023-10-13T15:45:39;25.50;78.70
47765;DHT22;33529;49.242;8.670;2023-10-13T15:48:06;25.30;79.30
47765;DHT22;33529;49.242;8.670;2023-10-13T15:50:37;25.10;78.60
47765;DHT22;33529;49.242;8.670;2023-10-13T15:53:08;25.00;79.80
47765;DHT22;33529;49.242;8.670;2023-10-13T15:55:36;24.80;79.50
47765;DHT22;33529;49.242;8.670;2023-10-13T15:58:04;24.80;79.60
47765;DHT22;33529;49.242;8.670;2023-10-13T16:00:35;24.60;79.70
47765;DHT22;33529;49.242;8.670;2023-10-13T16:03:03;24.40;79.60
47765;DHT22;33529;49.242;8.670;2023-10-13T16:05:38;24.30;80.60
47765;DHT22;33529;49.242;8.670;2023-10-13T16:08:06;24.20;81.50
47765;DHT22;33529;49.242;8.670;2023-10-13T16:10:38;24.10;81.10
47765;DHT22;33529;49.242;8.670;2023-10-13T16:13:05;24.00;81.10
47765;DHT22;33529;49.242;8.670;2023-10-13T16:15:36;23.90;81.10
47765;DHT22;33529;49.242;8.670;2023-10-13T16:18:10;23.80;81.20
47765;DHT22;33529;49.242;8.670;2023-10-13T16:20:37;23.70;80.90
47765;DHT22;33529;49.242;8.670;2023-10-13T16:23:04;23.70;80.30
47765;DHT22;33529;49.242;8.670;2023-10-13T16:25:32;23.60;81.40
47765;DHT22;33529;49.242;8.670;2023-10-13T16:27:59;23.50;80.80
47765;DHT22;33529;49.242;8.670;2023-10-13T16:30:26;23.40;81.10
47765;DHT22;33529;49.242;8.670;2023-10-13T16:32:55;23.30;79.90
47765;DHT22;33529;49.242;8.670;2023-10-13T16:35:22;23.20;80.30